sensor_id;sensor_type;location;lat;lon;timestamp;pressure;altitude;pressure_sealevel;temperature;humidity
37694;BME280;23531;50.122;8.644;2024-01-11T00:00:23;101848.72;;;-0.28;nan
37694;BME280;23531;50.122;8.644;2024-01-11T00:02:24;101855.13;;;-0.45;nan
37694;BME280;23531;50.122;8.644;2024-01-11T00:04:26;101859.25;;;-0.53;nan
37694;BME280;23531;50.122;8.644;2024-01-11T00:06:28;101855.00;;;-0.56;nan
37694;BME280;23531;50.122;8.644;2024-01-11T00:08:28;101859.22;;;-0.66;nan
37694;BME280;23531;50.122;8.644;2024-01-11T00:10:30;101857.75;;;-0.70;nan
37694;BME280;23531;50.122;8.644;2024-01-11T00:12:31;101856.13;;;-0.85;nan
37694;BME280;23531;50.122;8.644;2024-01-11T00:14:33;101859.81;;;-0.88;nan
37694;BME280;23531;50.122;8.644;2024-01-11T00:16:34;101860.69;;;-0.75;nan
37694;BME280;23531;50.122;8.644;2024-01-11T00:18:35;101860.69;;;-0.75;nan
37694;BME280;23531;50.122;8.644;2024-01-11T00:20:37;101860.00;;;-1.03;nan
37694;BME280;23531;50.122;8.644;2024-01-11T00:22:38;101857.63;;;-1.08;nan
37694;BME280;23531;50.122;8.644;2024-01-11T00:24:39;101867.19;;;-1.20;nan
37694;BME280;23531;50.122;8.644;2024-01-11T00:26:41;101868.69;;;-0.89;nan
37694;BME280;23531;50.122;8.644;2024-01-11T00:28:41;101864.78;;;-0.83;nan
37694;BME280;23531;50.122;8.644;2024-01-11T00:30:43;101861.16;;;-0.68;nan
37694;BME280;23531;50.122;8.644;2024-01-11T00:32:44;101865.00;;;-0.86;nan
37694;BME280;23531;50.122;8.644;2024-01-11T00:34:46;101854.22;;;-0.83;nan
37694;BME280;23531;50.122;8.644;2024-01-11T00:36:49;101859.63;;;-1.12;nan
37694;BME280;23531;50.122;8.644;2024-01-11T00:38:50;101856.19;;;-0.99;nan
37694;BME280;23531;50.122;8.644;2024-01-11T00:40:51;101865.09;;;-0.88;nan
37694;BME280;23531;50.122;8.644;2024-01-11T00:42:53;101862.13;;;-0.96;nan
37694;BME280;23531;50.122;8.644;2024-01-11T00:44:54;101863.91;;;-0.96;nan
37694;BME280;23531;50.122;8.644;2024-01-11T00:46:56;101871.06;;;-0.98;nan
37694;BME280;23531;50.122;8.644;2024-01-11T00:48:57;101871.69;;;-1.07;nan
37694;BME280;23531;50.122;8.644;2024-01-11T00:50:59;101865.91;;;-1.00;nan
37694;BME280;23531;50.122;8.644;2024-01-11T00:53:02;101876.69;;;-0.90;nan
37694;BME280;23531;50.122;8.644;2024-01-11T00:55:04;101875.03;;;-1.18;nan
37694;BME280;23531;50.122;8.644;2024-01-11T00:57:05;101870.81;;;-1.35;nan
37694;BME280;23531;50.122;8.644;2024-01-11T00:59:07;101878.69;;;-1.21;nan
37694;BME280;23531;50.122;8.644;2024-01-11T01:01:08;101877.41;;;-1.28;nan
37694;BME280;23531;50.122;8.644;2024-01-11T01:03:09;101877.00;;;-1.22;nan
37694;BME280;23531;50.122;8.644;2024-01-11T01:05:10;101877.41;;;-1.28;nan
37694;BME280;23531;50.122;8.644;2024-01-11T01:07:11;101888.81;;;-1.27;nan
37694;BME280;23531;50.122;8.644;2024-01-11T01:09:14;101894.72;;;-1.24;nan
37694;BME280;23531;50.122;8.644;2024-01-11T01:11:16;101891.69;;;-1.18;nan
37694;BME280;23531;50.122;8.644;2024-01-11T01:13:17;101886.25;;;-1.29;nan
37694;BME280;23531;50.122;8.644;2024-01-11T01:15:18;101883.97;;;-1.21;nan
37694;BME280;23531;50.122;8.644;2024-01-11T01:17:19;101876.66;;;-1.30;nan
37694;BME280;23531;50.122;8.644;2024-01-11T01:19:20;101884.47;;;-1.28;nan
37694;BME280;23531;50.122;8.644;2024-01-11T01:21:21;101879.28;;;-1.30;nan
37694;BME280;23531;50.122;8.644;2024-01-11T01:23:22;101880.34;;;-1.05;nan
37694;BME280;23531;50.122;8.644;2024-01-11T01:25:26;101877.53;;;-1.02;nan
37694;BME280;23531;50.122;8.644;2024-01-11T01:27:27;101878.50;;;-0.91;nan
37694;BME280;23531;50.122;8.644;2024-01-11T01:29:29;101869.22;;;-1.11;nan
37694;BME280;23531;50.122;8.644;2024-01-11T01:31:30;101868.09;;;-1.06;nan
37694;BME280;23531;50.122;8.644;2024-01-11T01:33:37;101876.41;;;-0.86;nan
37694;BME280;23531;50.122;8.644;2024-01-11T01:35:38;101876.44;;;-0.73;nan
37694;BME280;23531;50.122;8.644;2024-01-11T01:37:40;101872.31;;;-0.77;nan
37694;BME280;23531;50.122;8.644;2024-01-11T01:39:41;101872.53;;;-0.80;nan
37694;BME280;23531;50.122;8.644;2024-01-11T01:41:44;101872.63;;;-1.08;nan
37694;BME280;23531;50.122;8.644;2024-01-11T01:43:46;101878.00;;;-1.10;nan
37694;BME280;23531;50.122;8.644;2024-01-11T01:45:47;101873.22;;;-1.18;nan
37694;BME280;23531;50.122;8.644;2024-01-11T01:47:48;101885.13;;;-1.25;nan
37694;BME280;23531;50.122;8.644;2024-01-11T01:49:50;101886.22;;;-1.15;nan
37694;BME280;23531;50.122;8.644;2024-01-11T01:51:52;101891.44;;;-1.27;nan
37694;BME280;23531;50.122;8.644;2024-01-11T01:53:56;101888.78;;;-1.13;nan
37694;BME280;23531;50.122;8.644;2024-01-11T01:55:57;101890.09;;;-1.20;nan
37694;BME280;23531;50.122;8.644;2024-01-11T01:58:00;101899.19;;;-1.38;nan
37694;BME280;23531;50.122;8.644;2024-01-11T02:00:02;101896.75;;;-1.41;nan
37694;BME280;23531;50.122;8.644;2024-01-11T02:02:05;101899.66;;;-1.46;nan
37694;BME280;23531;50.122;8.644;2024-01-11T02:04:07;101898.88;;;-1.34;nan
37694;BME280;23531;50.122;8.644;2024-01-11T02:06:09;101892.22;;;-1.39;nan
37694;BME280;23531;50.122;8.644;2024-01-11T02:08:15;101897.34;;;-1.24;nan
37694;BME280;23531;50.122;8.644;2024-01-11T02:10:17;101897.25;;;-1.49;nan
37694;BME280;23531;50.122;8.644;2024-01-11T02:12:20;101888.13;;;-1.72;nan
37694;BME280;23531;50.122;8.644;2024-01-11T02:14:23;101891.63;;;-1.30;nan
37694;BME280;23531;50.122;8.644;2024-01-11T02:16:24;101889.78;;;-1.57;nan
37694;BME280;23531;50.122;8.644;2024-01-11T02:18:25;101893.50;;;-1.59;nan
37694;BME280;23531;50.122;8.644;2024-01-11T02:20:27;101895.38;;;-1.75;nan
37694;BME280;23531;50.122;8.644;2024-01-11T02:22:32;101894.25;;;-1.71;nan
37694;BME280;23531;50.122;8.644;2024-01-11T02:24:36;101895.25;;;-1.46;nan
37694;BME280;23531;50.122;8.644;2024-01-11T02:26:57;101894.78;;;-1.38;nan
37694;BME280;23531;50.122;8.644;2024-01-11T02:28:59;101891.13;;;-1.23;nan
37694;BME280;23531;50.122;8.644;2024-01-11T02:31:01;101887.81;;;-1.12;nan
37694;BME280;23531;50.122;8.644;2024-01-11T02:33:03;101891.09;;;-1.08;nan
37694;BME280;23531;50.122;8.644;2024-01-11T02:35:04;101895.25;;;-1.04;nan
37694;BME280;23531;50.122;8.644;2024-01-11T02:37:06;101890.28;;;-1.23;nan
37694;BME280;23531;50.122;8.644;2024-01-11T02:39:08;101895.09;;;-1.16;nan
37694;BME280;23531;50.122;8.644;2024-01-11T02:41:10;101894.69;;;-1.10;nan
37694;BME280;23531;50.122;8.644;2024-01-11T02:43:13;101898.53;;;-1.28;nan
37694;BME280;23531;50.122;8.644;2024-01-11T02:45:14;101901.09;;;-1.40;nan
37694;BME280;23531;50.122;8.644;2024-01-11T02:47:15;101901.28;;;-1.43;nan
37694;BME280;23531;50.122;8.644;2024-01-11T02:49:16;101901.09;;;-1.55;nan
37694;BME280;23531;50.122;8.644;2024-01-11T02:51:17;101897.81;;;-1.72;nan
37694;BME280;23531;50.122;8.644;2024-01-11T02:53:19;101894.34;;;-1.73;nan
37694;BME280;23531;50.122;8.644;2024-01-11T02:55:20;101889.50;;;-1.52;nan
37694;BME280;23531;50.122;8.644;2024-01-11T02:57:22;101889.09;;;-1.32;nan
37694;BME280;23531;50.122;8.644;2024-01-11T02:59:23;101891.03;;;-1.48;nan
37694;BME280;23531;50.122;8.644;2024-01-11T03:01:24;101883.88;;;-1.60;nan
37694;BME280;23531;50.122;8.644;2024-01-11T03:03:25;101883.66;;;-1.57;nan
37694;BME280;23531;50.122;8.644;2024-01-11T03:05:26;101885.19;;;-1.67;nan
37694;BME280;23531;50.122;8.644;2024-01-11T03:07:27;101886.97;;;-1.68;nan
37694;BME280;23531;50.122;8.644;2024-01-11T03:09:28;101880.97;;;-1.70;nan
37694;BME280;23531;50.122;8.644;2024-01-11T03:11:29;101887.16;;;-1.57;nan
37694;BME280;23531;50.122;8.644;2024-01-11T03:13:32;101878.44;;;-1.71;nan
37694;BME280;23531;50.122;8.644;2024-01-11T03:15:33;101880.31;;;-1.73;nan
37694;BME280;23531;50.122;8.644;2024-01-11T03:17:35;101867.31;;;-1.62;nan
37694;BME280;23531;50.122;8.644;2024-01-11T03:19:39;101874.00;;;-1.71;nan
37694;BME280;23531;50.122;8.644;2024-01-11T03:21:42;101865.69;;;-1.65;nan
37694;BME280;23531;50.122;8.644;2024-01-11T03:23:43;101869.38;;;-1.67;nan
37694;BME280;23531;50.122;8.644;2024-01-11T03:25:44;101866.81;;;-1.69;nan
37694;BME280;23531;50.122;8.644;2024-01-11T03:27:45;101868.56;;;-1.82;nan
37694;BME280;23531;50.122;8.644;2024-01-11T03:29:48;101871.19;;;-1.82;nan
37694;BME280;23531;50.122;8.644;2024-01-11T03:31:50;101868.25;;;-1.92;nan
37694;BME280;23531;50.122;8.644;2024-01-11T03:33:51;101871.44;;;-2.01;nan
37694;BME280;23531;50.122;8.644;2024-01-11T03:35:53;101877.31;;;-1.96;nan
37694;BME280;23531;50.122;8.644;2024-01-11T03:37:54;101876.41;;;-2.25;nan
37694;BME280;23531;50.122;8.644;2024-01-11T03:39:55;101872.22;;;-1.99;nan
37694;BME280;23531;50.122;8.644;2024-01-11T03:41:57;101868.06;;;-2.03;nan
37694;BME280;23531;50.122;8.644;2024-01-11T03:43:58;101875.41;;;-2.08;nan
37694;BME280;23531;50.122;8.644;2024-01-11T03:46:01;101885.28;;;-2.11;nan
37694;BME280;23531;50.122;8.644;2024-01-11T03:48:02;101881.59;;;-2.23;nan
37694;BME280;23531;50.122;8.644;2024-01-11T03:50:04;101893.47;;;-2.30;nan
37694;BME280;23531;50.122;8.644;2024-01-11T03:52:05;101882.75;;;-2.13;nan
37694;BME280;23531;50.122;8.644;2024-01-11T03:54:07;101879.38;;;-2.01;nan
37694;BME280;23531;50.122;8.644;2024-01-11T03:56:08;101871.56;;;-1.88;nan
37694;BME280;23531;50.122;8.644;2024-01-11T03:58:10;101883.78;;;-1.87;nan
37694;BME280;23531;50.122;8.644;2024-01-11T04:00:12;101871.00;;;-2.07;nan
37694;BME280;23531;50.122;8.644;2024-01-11T04:02:15;101880.50;;;-2.05;nan
37694;BME280;23531;50.122;8.644;2024-01-11T04:04:16;101882.00;;;-2.01;nan
37694;BME280;23531;50.122;8.644;2024-01-11T04:06:19;101875.03;;;-2.02;nan
37694;BME280;23531;50.122;8.644;2024-01-11T04:08:21;101877.69;;;-2.16;nan
37694;BME280;23531;50.122;8.644;2024-01-11T04:10:22;101877.47;;;-1.99;nan
37694;BME280;23531;50.122;8.644;2024-01-11T04:12:23;101883.97;;;-1.90;nan
37694;BME280;23531;50.122;8.644;2024-01-11T04:14:24;101875.97;;;-2.03;nan
37694;BME280;23531;50.122;8.644;2024-01-11T04:16:25;101883.22;;;-1.78;nan
37694;BME280;23531;50.122;8.644;2024-01-11T04:18:28;101883.59;;;-1.98;nan
37694;BME280;23531;50.122;8.644;2024-01-11T04:20:30;101889.34;;;-2.06;nan
37694;BME280;23531;50.122;8.644;2024-01-11T04:22:31;101889.34;;;-2.06;nan
37694;BME280;23531;50.122;8.644;2024-01-11T04:24:32;101892.38;;;-1.69;nan
37694;BME280;23531;50.122;8.644;2024-01-11T04:26:33;101893.94;;;-1.53;nan
37694;BME280;23531;50.122;8.644;2024-01-11T04:28:36;101886.84;;;-1.38;nan
37694;BME280;23531;50.122;8.644;2024-01-11T04:30:38;101889.28;;;-1.35;nan
37694;BME280;23531;50.122;8.644;2024-01-11T04:32:38;101888.81;;;-1.27;nan
37694;BME280;23531;50.122;8.644;2024-01-11T04:34:41;101894.78;;;-1.11;nan
37694;BME280;23531;50.122;8.644;2024-01-11T04:36:43;101888.50;;;-1.23;nan
37694;BME280;23531;50.122;8.644;2024-01-11T04:38:44;101899.47;;;-1.43;nan
37694;BME280;23531;50.122;8.644;2024-01-11T04:40:45;101887.28;;;-1.58;nan
37694;BME280;23531;50.122;8.644;2024-01-11T04:42:47;101888.84;;;-1.41;nan
37694;BME280;23531;50.122;8.644;2024-01-11T04:44:48;101893.25;;;-1.28;nan
37694;BME280;23531;50.122;8.644;2024-01-11T04:46:49;101888.44;;;-1.35;nan
37694;BME280;23531;50.122;8.644;2024-01-11T04:48:50;101890.78;;;-1.31;nan
37694;BME280;23531;50.122;8.644;2024-01-11T04:50:54;101893.09;;;-1.67;nan
37694;BME280;23531;50.122;8.644;2024-01-11T04:52:54;101898.81;;;-1.47;nan
37694;BME280;23531;50.122;8.644;2024-01-11T04:54:55;101897.44;;;-1.52;nan
37694;BME280;23531;50.122;8.644;2024-01-11T04:56:57;101901.50;;;-1.61;nan
37694;BME280;23531;50.122;8.644;2024-01-11T04:58:58;101906.19;;;-1.80;nan
37694;BME280;23531;50.122;8.644;2024-01-11T05:01:00;101905.91;;;-1.61;nan
37694;BME280;23531;50.122;8.644;2024-01-11T05:03:01;101892.56;;;-1.31;nan
37694;BME280;23531;50.122;8.644;2024-01-11T05:05:03;101892.31;;;-1.27;nan
37694;BME280;23531;50.122;8.644;2024-01-11T05:07:06;101888.00;;;-1.56;nan
37694;BME280;23531;50.122;8.644;2024-01-11T05:09:07;101889.97;;;-1.46;nan
37694;BME280;23531;50.122;8.644;2024-01-11T05:11:15;101896.78;;;-1.15;nan
37694;BME280;23531;50.122;8.644;2024-01-11T05:13:15;101902.59;;;-1.10;nan
37694;BME280;23531;50.122;8.644;2024-01-11T05:15:17;101905.78;;;-1.31;nan
37694;BME280;23531;50.122;8.644;2024-01-11T05:17:18;101898.00;;;-1.47;nan
37694;BME280;23531;50.122;8.644;2024-01-11T05:19:20;101909.44;;;-1.34;nan
37694;BME280;23531;50.122;8.644;2024-01-11T05:21:21;101902.88;;;-1.41;nan
37694;BME280;23531;50.122;8.644;2024-01-11T05:23:24;101898.94;;;-1.48;nan
37694;BME280;23531;50.122;8.644;2024-01-11T05:25:24;101895.63;;;-1.37;nan
37694;BME280;23531;50.122;8.644;2024-01-11T05:27:25;101890.63;;;-1.42;nan
37694;BME280;23531;50.122;8.644;2024-01-11T05:29:27;101899.19;;;-1.38;nan
37694;BME280;23531;50.122;8.644;2024-01-11T05:31:27;101903.47;;;-1.64;nan
37694;BME280;23531;50.122;8.644;2024-01-11T05:33:29;101903.75;;;-1.69;nan
37694;BME280;23531;50.122;8.644;2024-01-11T05:35:31;101903.81;;;-1.56;nan
37694;BME280;23531;50.122;8.644;2024-01-11T05:37:33;101909.09;;;-1.56;nan
37694;BME280;23531;50.122;8.644;2024-01-11T05:39:35;101914.19;;;-1.67;nan
37694;BME280;23531;50.122;8.644;2024-01-11T05:41:37;101912.59;;;-1.56;nan
37694;BME280;23531;50.122;8.644;2024-01-11T05:43:37;101918.78;;;-2.13;nan
37694;BME280;23531;50.122;8.644;2024-01-11T05:45:39;101920.59;;;-2.00;nan
37694;BME280;23531;50.122;8.644;2024-01-11T05:47:39;101920.97;;;-1.92;nan
37694;BME280;23531;50.122;8.644;2024-01-11T05:49:41;101930.44;;;-2.32;nan
37694;BME280;23531;50.122;8.644;2024-01-11T05:51:41;101929.94;;;-2.38;nan
37694;BME280;23531;50.122;8.644;2024-01-11T05:53:43;101929.63;;;-2.48;nan
37694;BME280;23531;50.122;8.644;2024-01-11T05:55:45;101927.72;;;-2.30;nan
37694;BME280;23531;50.122;8.644;2024-01-11T05:57:47;101924.91;;;-2.27;nan
37694;BME280;23531;50.122;8.644;2024-01-11T05:59:48;101934.28;;;-2.37;nan
37694;BME280;23531;50.122;8.644;2024-01-11T06:01:49;101933.56;;;-2.55;nan
37694;BME280;23531;50.122;8.644;2024-01-11T06:03:51;101939.00;;;-2.14;nan
37694;BME280;23531;50.122;8.644;2024-01-11T06:05:52;101945.88;;;-1.81;nan
37694;BME280;23531;50.122;8.644;2024-01-11T06:07:52;101947.53;;;-1.80;nan
37694;BME280;23531;50.122;8.644;2024-01-11T06:09:54;101958.28;;;-1.84;nan
37694;BME280;23531;50.122;8.644;2024-01-11T06:11:57;101957.81;;;-1.76;nan
37694;BME280;23531;50.122;8.644;2024-01-11T06:13:57;101967.94;;;-1.98;nan
37694;BME280;23531;50.122;8.644;2024-01-11T06:15:59;101963.91;;;-1.90;nan
37694;BME280;23531;50.122;8.644;2024-01-11T06:18:00;101973.47;;;-2.03;nan
37694;BME280;23531;50.122;8.644;2024-01-11T06:20:02;101977.00;;;-1.88;nan
37694;BME280;23531;50.122;8.644;2024-01-11T06:22:03;101971.72;;;-1.88;nan
37694;BME280;23531;50.122;8.644;2024-01-11T06:24:05;101976.66;;;-1.82;nan
37694;BME280;23531;50.122;8.644;2024-01-11T06:26:07;101971.84;;;-1.75;nan
37694;BME280;23531;50.122;8.644;2024-01-11T06:28:10;101976.88;;;-2.01;nan
37694;BME280;23531;50.122;8.644;2024-01-11T06:30:11;101991.31;;;-1.92;nan
37694;BME280;23531;50.122;8.644;2024-01-11T06:32:13;101988.03;;;-1.81;nan
37694;BME280;23531;50.122;8.644;2024-01-11T06:34:14;101991.03;;;-1.88;nan
37694;BME280;23531;50.122;8.644;2024-01-11T06:36:16;101990.28;;;-1.90;nan
37694;BME280;23531;50.122;8.644;2024-01-11T06:38:17;101991.09;;;-2.33;nan
37694;BME280;23531;50.122;8.644;2024-01-11T06:40:19;101991.28;;;-2.36;nan
37694;BME280;23531;50.122;8.644;2024-01-11T06:42:20;101993.09;;;-2.52;nan
37694;BME280;23531;50.122;8.644;2024-01-11T06:44:23;101990.63;;;-2.40;nan
37694;BME280;23531;50.122;8.644;2024-01-11T06:46:24;101999.84;;;-2.33;nan
37694;BME280;23531;50.122;8.644;2024-01-11T06:48:26;101997.25;;;-1.89;nan
37694;BME280;23531;50.122;8.644;2024-01-11T06:50:26;101999.19;;;-2.06;nan
37694;BME280;23531;50.122;8.644;2024-01-11T06:52:28;101995.53;;;-1.90;nan
37694;BME280;23531;50.122;8.644;2024-01-11T06:54:30;101992.75;;;-1.72;nan
37694;BME280;23531;50.122;8.644;2024-01-11T06:56:32;101995.31;;;-1.71;nan
37694;BME280;23531;50.122;8.644;2024-01-11T06:58:33;101986.91;;;-1.63;nan
37694;BME280;23531;50.122;8.644;2024-01-11T07:00:36;101999.13;;;-1.91;nan
37694;BME280;23531;50.122;8.644;2024-01-11T07:02:43;102002.22;;;-1.98;nan
37694;BME280;23531;50.122;8.644;2024-01-11T07:04:44;101993.13;;;-1.93;nan
37694;BME280;23531;50.122;8.644;2024-01-11T07:06:45;102000.38;;;-1.68;nan
37694;BME280;23531;50.122;8.644;2024-01-11T07:08:46;102002.47;;;-1.73;nan
37694;BME280;23531;50.122;8.644;2024-01-11T07:10:47;102002.72;;;-1.77;nan
37694;BME280;23531;50.122;8.644;2024-01-11T07:12:48;102002.69;;;-2.06;nan
37694;BME280;23531;50.122;8.644;2024-01-11T07:14:49;102002.59;;;-2.04;nan
37694;BME280;23531;50.122;8.644;2024-01-11T07:16:52;102002.75;;;-2.07;nan
37694;BME280;23531;50.122;8.644;2024-01-11T07:18:54;102007.50;;;-1.98;nan
37694;BME280;23531;50.122;8.644;2024-01-11T07:20:56;102009.03;;;-1.80;nan
37694;BME280;23531;50.122;8.644;2024-01-11T07:22:58;102012.06;;;-1.72;nan
37694;BME280;23531;50.122;8.644;2024-01-11T07:25:00;102009.44;;;-2.16;nan
37694;BME280;23531;50.122;8.644;2024-01-11T07:27:01;102006.41;;;-2.10;nan
37694;BME280;23531;50.122;8.644;2024-01-11T07:29:02;102007.19;;;-2.08;nan
37694;BME280;23531;50.122;8.644;2024-01-11T07:31:04;102006.38;;;-2.24;nan
37694;BME280;23531;50.122;8.644;2024-01-11T07:33:06;102011.81;;;-1.97;nan
37694;BME280;23531;50.122;8.644;2024-01-11T07:35:08;102014.16;;;-2.07;nan
37694;BME280;23531;50.122;8.644;2024-01-11T07:37:10;102014.16;;;-2.07;nan
37694;BME280;23531;50.122;8.644;2024-01-11T07:39:11;102011.78;;;-2.41;nan
37694;BME280;23531;50.122;8.644;2024-01-11T07:41:13;102024.50;;;-2.34;nan
37694;BME280;23531;50.122;8.644;2024-01-11T07:43:14;102019.88;;;-2.14;nan
37694;BME280;23531;50.122;8.644;2024-01-11T07:45:16;102011.19;;;-2.46;nan
37694;BME280;23531;50.122;8.644;2024-01-11T07:47:17;102005.50;;;-2.54;nan
37694;BME280;23531;50.122;8.644;2024-01-11T07:49:19;102009.59;;;-2.65;nan
37694;BME280;23531;50.122;8.644;2024-01-11T07:51:21;102006.72;;;-2.76;nan
37694;BME280;23531;50.122;8.644;2024-01-11T07:53:22;102003.06;;;-2.73;nan
37694;BME280;23531;50.122;8.644;2024-01-11T07:55:24;102006.72;;;-2.76;nan
37694;BME280;23531;50.122;8.644;2024-01-11T07:57:26;101999.50;;;-2.72;nan
37694;BME280;23531;50.122;8.644;2024-01-11T07:59:32;102000.44;;;-2.73;nan
37694;BME280;23531;50.122;8.644;2024-01-11T08:01:36;102005.88;;;-2.76;nan
37694;BME280;23531;50.122;8.644;2024-01-11T08:03:37;102010.53;;;-2.66;nan
37694;BME280;23531;50.122;8.644;2024-01-11T08:05:40;101999.69;;;-2.75;nan
37694;BME280;23531;50.122;8.644;2024-01-11T08:07:42;101998.47;;;-2.70;nan
37694;BME280;23531;50.122;8.644;2024-01-11T08:09:44;102008.75;;;-2.49;nan
37694;BME280;23531;50.122;8.644;2024-01-11T08:11:45;102005.03;;;-2.61;nan
37694;BME280;23531;50.122;8.644;2024-01-11T08:13:47;102011.72;;;-2.56;nan
37694;BME280;23531;50.122;8.644;2024-01-11T08:15:48;102012.72;;;-2.58;nan
37694;BME280;23531;50.122;8.644;2024-01-11T08:17:50;102004.97;;;-2.45;nan
37694;BME280;23531;50.122;8.644;2024-01-11T08:19:51;102002.03;;;-2.25;nan
37694;BME280;23531;50.122;8.644;2024-01-11T08:21:54;102014.50;;;-2.13;nan
37694;BME280;23531;50.122;8.644;2024-01-11T08:23:56;102010.69;;;-2.23;nan
37694;BME280;23531;50.122;8.644;2024-01-11T08:25:58;102010.78;;;-2.25;nan
37694;BME280;23531;50.122;8.644;2024-01-11T08:27:58;102013.47;;;-2.10;nan
37694;BME280;23531;50.122;8.644;2024-01-11T08:30:00;102002.84;;;-2.09;nan
37694;BME280;23531;50.122;8.644;2024-01-11T08:32:02;102000.34;;;-1.96;nan
37694;BME280;23531;50.122;8.644;2024-01-11T08:34:04;102000.16;;;-1.93;nan
37694;BME280;23531;50.122;8.644;2024-01-11T08:36:06;102002.69;;;-1.92;nan
37694;BME280;23531;50.122;8.644;2024-01-11T08:38:08;102012.59;;;-1.95;nan
37694;BME280;23531;50.122;8.644;2024-01-11T08:40:10;102015.78;;;-1.90;nan
37694;BME280;23531;50.122;8.644;2024-01-11T08:42:11;102013.22;;;-2.06;nan
37694;BME280;23531;50.122;8.644;2024-01-11T08:44:15;102014.88;;;-2.19;nan
37694;BME280;23531;50.122;8.644;2024-01-11T08:46:23;102030.53;;;-2.32;nan
37694;BME280;23531;50.122;8.644;2024-01-11T08:48:25;102053.09;;;-2.12;nan
37694;BME280;23531;50.122;8.644;2024-01-11T08:50:26;102047.78;;;-2.26;nan
37694;BME280;23531;50.122;8.644;2024-01-11T08:52:28;102051.75;;;-2.19;nan
37694;BME280;23531;50.122;8.644;2024-01-11T08:54:30;102060.00;;;-2.25;nan
37694;BME280;23531;50.122;8.644;2024-01-11T08:56:33;102058.81;;;-2.35;nan
37694;BME280;23531;50.122;8.644;2024-01-11T08:58:35;102055.34;;;-2.36;nan
37694;BME280;23531;50.122;8.644;2024-01-11T09:00:36;102055.72;;;-2.12;nan
37694;BME280;23531;50.122;8.644;2024-01-11T09:02:37;102055.09;;;-2.01;nan
37694;BME280;23531;50.122;8.644;2024-01-11T09:04:39;102048.72;;;-2.27;nan
37694;BME280;23531;50.122;8.644;2024-01-11T09:06:40;102040.06;;;-2.45;nan
37694;BME280;23531;50.122;8.644;2024-01-11T09:08:42;102047.56;;;-2.37;nan
37694;BME280;23531;50.122;8.644;2024-01-11T09:10:44;102045.16;;;-2.26;nan
37694;BME280;23531;50.122;8.644;2024-01-11T09:12:46;102048.75;;;-2.13;nan
37694;BME280;23531;50.122;8.644;2024-01-11T09:14:47;102046.19;;;-1.99;nan
37694;BME280;23531;50.122;8.644;2024-01-11T09:16:49;102039.00;;;-1.81;nan
37694;BME280;23531;50.122;8.644;2024-01-11T09:18:50;102042.78;;;-1.71;nan
37694;BME280;23531;50.122;8.644;2024-01-11T09:20:52;102034.28;;;-1.76;nan
37694;BME280;23531;50.122;8.644;2024-01-11T09:22:53;102025.72;;;-1.65;nan
37694;BME280;23531;50.122;8.644;2024-01-11T09:24:54;102028.75;;;-1.71;nan
37694;BME280;23531;50.122;8.644;2024-01-11T09:26:57;102030.81;;;-1.62;nan
37694;BME280;23531;50.122;8.644;2024-01-11T09:28:58;102035.91;;;-1.59;nan
37694;BME280;23531;50.122;8.644;2024-01-11T09:31:00;102030.06;;;-1.50;nan
37694;BME280;23531;50.122;8.644;2024-01-11T09:33:02;102034.78;;;-1.41;nan
37694;BME280;23531;50.122;8.644;2024-01-11T09:35:05;102050.13;;;-1.62;nan
37694;BME280;23531;50.122;8.644;2024-01-11T09:37:06;102041.84;;;-1.56;nan
37694;BME280;23531;50.122;8.644;2024-01-11T09:39:08;102037.84;;;-1.77;nan
37694;BME280;23531;50.122;8.644;2024-01-11T09:41:11;102047.13;;;-1.70;nan
37694;BME280;23531;50.122;8.644;2024-01-11T09:43:15;102054.59;;;-1.78;nan
37694;BME280;23531;50.122;8.644;2024-01-11T09:45:17;102055.88;;;-1.69;nan
37694;BME280;23531;50.122;8.644;2024-01-11T09:47:18;102052.47;;;-1.71;nan
37694;BME280;23531;50.122;8.644;2024-01-11T09:49:21;102054.16;;;-1.56;nan
37694;BME280;23531;50.122;8.644;2024-01-11T09:51:24;102057.41;;;-1.51;nan
37694;BME280;23531;50.122;8.644;2024-01-11T09:53:28;102058.50;;;-1.55;nan
37694;BME280;23531;50.122;8.644;2024-01-11T09:55:30;102069.91;;;-1.55;nan
37694;BME280;23531;50.122;8.644;2024-01-11T09:57:32;102066.75;;;-1.17;nan
37694;BME280;23531;50.122;8.644;2024-01-11T09:59:35;102064.19;;;-1.04;nan
37694;BME280;23531;50.122;8.644;2024-01-11T10:01:37;102062.59;;;-0.93;nan
37694;BME280;23531;50.122;8.644;2024-01-11T10:03:39;102061.16;;;-1.13;nan
37694;BME280;23531;50.122;8.644;2024-01-11T10:05:41;102064.66;;;-1.12;nan
37694;BME280;23531;50.122;8.644;2024-01-11T10:07:44;102070.22;;;-1.17;nan
37694;BME280;23531;50.122;8.644;2024-01-11T10:09:46;102070.06;;;-1.14;nan
37694;BME280;23531;50.122;8.644;2024-01-11T10:11:47;102074.53;;;-1.01;nan
37694;BME280;23531;50.122;8.644;2024-01-11T10:13:56;102058.25;;;-0.94;nan
37694;BME280;23531;50.122;8.644;2024-01-11T10:16:09;102050.47;;;-0.68;nan
37694;BME280;23531;50.122;8.644;2024-01-11T10:18:10;102048.91;;;-0.85;nan
37694;BME280;23531;50.122;8.644;2024-01-11T10:20:13;102039.75;;;-0.94;nan
37694;BME280;23531;50.122;8.644;2024-01-11T10:22:14;102029.47;;;-0.84;nan
37694;BME280;23531;50.122;8.644;2024-01-11T10:24:18;102037.09;;;-0.80;nan
37694;BME280;23531;50.122;8.644;2024-01-11T10:26:20;102040.38;;;-0.76;nan
37694;BME280;23531;50.122;8.644;2024-01-11T10:28:22;102024.75;;;-0.52;nan
37694;BME280;23531;50.122;8.644;2024-01-11T10:30:23;102029.44;;;-0.43;nan
37694;BME280;23531;50.122;8.644;2024-01-11T10:32:28;102030.50;;;-0.06;nan
37694;BME280;23531;50.122;8.644;2024-01-11T10:34:29;102020.34;;;0.00;nan
37694;BME280;23531;50.122;8.644;2024-01-11T10:36:31;102016.28;;;0.09;nan
37694;BME280;23531;50.122;8.644;2024-01-11T10:38:35;102021.72;;;-0.07;nan
37694;BME280;23531;50.122;8.644;2024-01-11T10:40:38;102032.16;;;-0.45;nan
37694;BME280;23531;50.122;8.644;2024-01-11T10:42:43;102021.88;;;-0.62;nan
37694;BME280;23531;50.122;8.644;2024-01-11T10:44:46;102023.09;;;-0.41;nan
37694;BME280;23531;50.122;8.644;2024-01-11T10:46:54;102030.44;;;-0.31;nan
37694;BME280;23531;50.122;8.644;2024-01-11T10:48:59;102022.31;;;-0.28;nan
37694;BME280;23531;50.122;8.644;2024-01-11T10:51:05;102017.81;;;-0.41;nan
37694;BME280;23531;50.122;8.644;2024-01-11T10:53:12;102008.19;;;-0.42;nan